sensor_id;sensor_type;location;lat;lon;timestamp;temperature;humidity
23520;DHT22;11936;50.820;4.336;2024-03-06T00:01:34;9.90;99.90
23520;DHT22;11936;50.820;4.336;2024-03-06T00:04:00;9.70;99.90
23520;DHT22;11936;50.820;4.336;2024-03-06T00:06:27;9.70;99.90
23520;DHT22;11936;50.820;4.336;2024-03-06T00:08:52;9.70;99.90
23520;DHT22;11936;50.820;4.336;2024-03-06T00:11:18;9.70;99.90
23520;DHT22;11936;50.820;4.336;2024-03-06T00:13:43;9.70;99.90
23520;DHT22;11936;50.820;4.336;2024-03-06T00:16:10;9.80;99.90
23520;DHT22;11936;50.820;4.336;2024-03-06T00:18:35;9.90;99.90
23520;DHT22;11936;50.820;4.336;2024-03-06T00:21:01;9.90;99.90
23520;DHT22;11936;50.820;4.336;2024-03-06T00:23:26;9.90;99.90
23520;DHT22;11936;50.820;4.336;2024-03-06T00:25:52;9.80;99.90
23520;DHT22;11936;50.820;4.336;2024-03-06T00:28:18;9.70;99.90
23520;DHT22;11936;50.820;4.336;2024-03-06T00:30:43;9.70;99.90
23520;DHT22;11936;50.820;4.336;2024-03-06T00:33:09;9.70;99.90
23520;DHT22;11936;50.820;4.336;2024-03-06T00:35:34;9.80;99.90
23520;DHT22;11936;50.820;4.336;2024-03-06T00:38:00;9.80;99.90
23520;DHT22;11936;50.820;4.336;2024-03-06T00:40:29;9.70;99.90
23520;DHT22;11936;50.820;4.336;2024-03-06T00:42:57;9.80;99.90
23520;DHT22;11936;50.820;4.336;2024-03-06T00:45:24;9.70;99.90
23520;DHT22;11936;50.820;4.336;2024-03-06T00:47:49;9.80;99.90
23520;DHT22;11936;50.820;4.336;2024-03-06T00:50:15;9.80;99.90
23520;DHT22;11936;50.820;4.336;2024-03-06T00:52:42;9.90;99.90
23520;DHT22;11936;50.820;4.336;2024-03-06T00:55:09;9.80;99.90
23520;DHT22;11936;50.820;4.336;2024-03-06T00:57:35;9.80;99.90
23520;DHT22;11936;50.820;4.336;2024-03-06T01:00:01;9.70;99.90
23520;DHT22;11936;50.820;4.336;2024-03-06T01:02:31;9.70;99.90
23520;DHT22;11936;50.820;4.336;2024-03-06T01:04:56;9.80;99.90
23520;DHT22;11936;50.820;4.336;2024-03-06T01:07:22;9.90;99.90
23520;DHT22;11936;50.820;4.336;2024-03-06T01:09:48;9.80;99.90
23520;DHT22;11936;50.820;4.336;2024-03-06T01:12:13;9.70;99.90
23520;DHT22;11936;50.820;4.336;2024-03-06T01:14:39;9.70;99.90
23520;DHT22;11936;50.820;4.336;2024-03-06T01:17:04;9.70;99.90
23520;DHT22;11936;50.820;4.336;2024-03-06T01:19:30;9.70;99.90
23520;DHT22;11936;50.820;4.336;2024-03-06T01:21:56;9.80;99.90
23520;DHT22;11936;50.820;4.336;2024-03-06T01:24:21;9.80;99.90
23520;DHT22;11936;50.820;4.336;2024-03-06T01:26:47;9.80;99.90
23520;DHT22;11936;50.820;4.336;2024-03-06T01:29:13;9.70;99.90
23520;DHT22;11936;50.820;4.336;2024-03-06T01:31:39;9.70;99.90
23520;DHT22;11936;50.820;4.336;2024-03-06T01:34:04;9.60;99.90
23520;DHT22;11936;50.820;4.336;2024-03-06T01:36:30;9.50;99.90
23520;DHT22;11936;50.820;4.336;2024-03-06T01:38:55;9.40;99.90
23520;DHT22;11936;50.820;4.336;2024-03-06T01:41:21;9.50;99.90
23520;DHT22;11936;50.820;4.336;2024-03-06T01:43:47;9.60;99.90
23520;DHT22;11936;50.820;4.336;2024-03-06T01:46:12;9.50;99.90
23520;DHT22;11936;50.820;4.336;2024-03-06T01:48:38;9.20;99.90
23520;DHT22;11936;50.820;4.336;2024-03-06T01:51:04;9.20;99.90
23520;DHT22;11936;50.820;4.336;2024-03-06T01:53:32;9.20;99.90
23520;DHT22;11936;50.820;4.336;2024-03-06T01:55:59;9.40;99.90
23520;DHT22;11936;50.820;4.336;2024-03-06T01:58:26;9.30;99.90
23520;DHT22;11936;50.820;4.336;2024-03-06T02:00:52;9.20;99.90
23520;DHT22;11936;50.820;4.336;2024-03-06T02:03:18;9.20;99.90
23520;DHT22;11936;50.820;4.336;2024-03-06T02:05:48;9.20;99.90
23520;DHT22;11936;50.820;4.336;2024-03-06T02:08:14;9.00;99.90
23520;DHT22;11936;50.820;4.336;2024-03-06T02:10:40;9.00;99.90
23520;DHT22;11936;50.820;4.336;2024-03-06T02:13:06;9.00;99.90
23520;DHT22;11936;50.820;4.336;2024-03-06T02:15:32;9.00;99.90
23520;DHT22;11936;50.820;4.336;2024-03-06T02:17:58;8.70;99.90
23520;DHT22;11936;50.820;4.336;2024-03-06T02:20:24;8.90;99.90
23520;DHT22;11936;50.820;4.336;2024-03-06T02:22:50;8.90;99.90
23520;DHT22;11936;50.820;4.336;2024-03-06T02:25:16;8.80;99.90
23520;DHT22;11936;50.820;4.336;2024-03-06T02:27:43;8.90;99.90
23520;DHT22;11936;50.820;4.336;2024-03-06T02:30:09;8.80;99.90
23520;DHT22;11936;50.820;4.336;2024-03-06T02:32:35;8.80;99.90
23520;DHT22;11936;50.820;4.336;2024-03-06T02:35:01;8.90;99.90
23520;DHT22;11936;50.820;4.336;2024-03-06T02:37:28;9.00;99.90
23520;DHT22;11936;50.820;4.336;2024-03-06T02:39:54;9.20;99.90
23520;DHT22;11936;50.820;4.336;2024-03-06T02:42:19;8.90;99.90
23520;DHT22;11936;50.820;4.336;2024-03-06T02:44:45;8.90;99.90
23520;DHT22;11936;50.820;4.336;2024-03-06T02:47:11;9.00;99.90
23520;DHT22;11936;50.820;4.336;2024-03-06T02:49:36;8.80;99.90
23520;DHT22;11936;50.820;4.336;2024-03-06T02:52:02;8.80;99.90
23520;DHT22;11936;50.820;4.336;2024-03-06T02:54:28;8.80;99.90
23520;DHT22;11936;50.820;4.336;2024-03-06T02:56:53;8.80;99.90
23520;DHT22;11936;50.820;4.336;2024-03-06T02:59:19;8.80;99.90
23520;DHT22;11936;50.820;4.336;2024-03-06T03:01:45;8.70;99.90
23520;DHT22;11936;50.820;4.336;2024-03-06T03:04:11;8.60;99.90
23520;DHT22;11936;50.820;4.336;2024-03-06T03:06:36;8.60;99.90
23520;DHT22;11936;50.820;4.336;2024-03-06T03:09:02;8.60;99.90
23520;DHT22;11936;50.820;4.336;2024-03-06T03:11:29;8.70;99.90
23520;DHT22;11936;50.820;4.336;2024-03-06T03:13:55;8.70;99.90
23520;DHT22;11936;50.820;4.336;2024-03-06T03:16:21;8.80;99.90
23520;DHT22;11936;50.820;4.336;2024-03-06T03:18:47;8.80;99.90
23520;DHT22;11936;50.820;4.336;2024-03-06T03:21:16;8.90;99.90
23520;DHT22;11936;50.820;4.336;2024-03-06T03:23:41;8.90;99.90
23520;DHT22;11936;50.820;4.336;2024-03-06T03:26:10;8.70;99.90
23520;DHT22;11936;50.820;4.336;2024-03-06T03:28:38;8.90;99.90
23520;DHT22;11936;50.820;4.336;2024-03-06T03:31:09;8.90;99.90
23520;DHT22;11936;50.820;4.336;2024-03-06T03:33:43;9.00;99.90
23520;DHT22;11936;50.820;4.336;2024-03-06T03:36:09;9.10;99.90
23520;DHT22;11936;50.820;4.336;2024-03-06T03:38:36;8.90;99.90
23520;DHT22;11936;50.820;4.336;2024-03-06T03:41:09;9.00;99.90
23520;DHT22;11936;50.820;4.336;2024-03-06T03:43:35;8.90;99.90
23520;DHT22;11936;50.820;4.336;2024-03-06T03:46:01;8.90;99.90
23520;DHT22;11936;50.820;4.336;2024-03-06T03:48:26;8.80;99.90
23520;DHT22;11936;50.820;4.336;2024-03-06T03:50:52;8.80;99.90
23520;DHT22;11936;50.820;4.336;2024-03-06T03:53:18;8.70;99.90
23520;DHT22;11936;50.820;4.336;2024-03-06T03:55:43;8.70;99.90
23520;DHT22;11936;50.820;4.336;2024-03-06T03:58:09;8.60;99.90
23520;DHT22;11936;50.820;4.336;2024-03-06T04:00:35;8.50;99.90
23520;DHT22;11936;50.820;4.336;2024-03-06T04:03:00;8.60;99.90
23520;DHT22;11936;50.820;4.336;2024-03-06T04:05:26;8.40;99.90
23520;DHT22;11936;50.820;4.336;2024-03-06T04:07:51;8.40;99.90
23520;DHT22;11936;50.820;4.336;2024-03-06T04:10:17;8.50;99.90
23520;DHT22;11936;50.820;4.336;2024-03-06T04:12:42;8.70;99.90
23520;DHT22;11936;50.820;4.336;2024-03-06T04:15:08;8.80;99.90
23520;DHT22;11936;50.820;4.336;2024-03-06T04:17:34;8.80;99.90
23520;DHT22;11936;50.820;4.336;2024-03-06T04:20:02;8.80;99.90
23520;DHT22;11936;50.820;4.336;2024-03-06T04:22:28;8.90;99.90
23520;DHT22;11936;50.820;4.336;2024-03-06T04:24:54;9.10;99.90
23520;DHT22;11936;50.820;4.336;2024-03-06T04:27:21;9.00;99.90
23520;DHT22;11936;50.820;4.336;2024-03-06T04:29:47;8.90;99.90
23520;DHT22;11936;50.820;4.336;2024-03-06T04:32:13;8.80;99.90
23520;DHT22;11936;50.820;4.336;2024-03-06T04:34:38;8.70;99.90
23520;DHT22;11936;50.820;4.336;2024-03-06T04:37:04;8.60;99.90
23520;DHT22;11936;50.820;4.336;2024-03-06T04:39:30;8.50;99.90
23520;DHT22;11936;50.820;4.336;2024-03-06T04:41:57;8.70;99.90
23520;DHT22;11936;50.820;4.336;2024-03-06T04:44:22;8.70;99.90
23520;DHT22;11936;50.820;4.336;2024-03-06T04:46:50;8.80;99.90
23520;DHT22;11936;50.820;4.336;2024-03-06T04:49:16;8.70;99.90
23520;DHT22;11936;50.820;4.336;2024-03-06T04:51:41;8.70;99.90
23520;DHT22;11936;50.820;4.336;2024-03-06T04:54:07;8.70;99.90
23520;DHT22;11936;50.820;4.336;2024-03-06T04:56:33;8.80;99.90
23520;DHT22;11936;50.820;4.336;2024-03-06T04:58:59;8.90;99.90
23520;DHT22;11936;50.820;4.336;2024-03-06T05:01:29;8.90;99.90
23520;DHT22;11936;50.820;4.336;2024-03-06T05:03:55;8.80;99.90
23520;DHT22;11936;50.820;4.336;2024-03-06T05:06:22;8.80;99.90
23520;DHT22;11936;50.820;4.336;2024-03-06T05:08:48;8.80;99.90
23520;DHT22;11936;50.820;4.336;2024-03-06T05:11:13;8.80;99.90
23520;DHT22;11936;50.820;4.336;2024-03-06T05:13:39;8.90;99.90
23520;DHT22;11936;50.820;4.336;2024-03-06T05:16:06;8.80;99.90
23520;DHT22;11936;50.820;4.336;2024-03-06T05:18:34;8.90;99.90
23520;DHT22;11936;50.820;4.336;2024-03-06T05:21:00;8.90;99.90
23520;DHT22;11936;50.820;4.336;2024-03-06T05:23:25;8.90;99.90
23520;DHT22;11936;50.820;4.336;2024-03-06T05:25:51;8.90;99.90
23520;DHT22;11936;50.820;4.336;2024-03-06T05:28:16;8.70;99.90
23520;DHT22;11936;50.820;4.336;2024-03-06T05:30:42;8.70;99.90
23520;DHT22;11936;50.820;4.336;2024-03-06T05:33:08;8.70;99.90
23520;DHT22;11936;50.820;4.336;2024-03-06T05:35:33;8.90;99.90
23520;DHT22;11936;50.820;4.336;2024-03-06T05:37:59;8.80;99.90
23520;DHT22;11936;50.820;4.336;2024-03-06T05:40:24;8.80;99.90
23520;DHT22;11936;50.820;4.336;2024-03-06T05:42:50;8.60;99.90
23520;DHT22;11936;50.820;4.336;2024-03-06T05:45:16;8.70;99.90
23520;DHT22;11936;50.820;4.336;2024-03-06T05:47:42;8.80;99.90
23520;DHT22;11936;50.820;4.336;2024-03-06T05:50:08;8.80;99.90
23520;DHT22;11936;50.820;4.336;2024-03-06T05:52:36;8.80;99.90
23520;DHT22;11936;50.820;4.336;2024-03-06T05:55:02;8.90;99.90
23520;DHT22;11936;50.820;4.336;2024-03-06T05:57:28;8.80;99.90
23520;DHT22;11936;50.820;4.336;2024-03-06T05:59:53;8.50;99.90
23520;DHT22;11936;50.820;4.336;2024-03-06T06:02:20;8.50;99.90
23520;DHT22;11936;50.820;4.336;2024-03-06T06:04:46;8.50;99.90
23520;DHT22;11936;50.820;4.336;2024-03-06T06:07:11;8.40;99.90
23520;DHT22;11936;50.820;4.336;2024-03-06T06:09:37;8.30;99.90
23520;DHT22;11936;50.820;4.336;2024-03-06T06:12:03;8.40;99.90
23520;DHT22;11936;50.820;4.336;2024-03-06T06:14:28;8.40;99.90
23520;DHT22;11936;50.820;4.336;2024-03-06T06:16:55;8.60;99.90
23520;DHT22;11936;50.820;4.336;2024-03-06T06:19:21;8.50;99.90
23520;DHT22;11936;50.820;4.336;2024-03-06T06:21:47;8.40;99.90
23520;DHT22;11936;50.820;4.336;2024-03-06T06:24:13;8.50;99.90
23520;DHT22;11936;50.820;4.336;2024-03-06T06:26:39;8.50;99.90
23520;DHT22;11936;50.820;4.336;2024-03-06T06:29:05;8.50;99.90
23520;DHT22;11936;50.820;4.336;2024-03-06T06:31:31;8.50;99.90
23520;DHT22;11936;50.820;4.336;2024-03-06T06:33:57;8.60;99.90
23520;DHT22;11936;50.820;4.336;2024-03-06T06:36:23;8.50;99.90
23520;DHT22;11936;50.820;4.336;2024-03-06T06:38:49;8.60;99.90
23520;DHT22;11936;50.820;4.336;2024-03-06T06:41:15;8.60;99.90
23520;DHT22;11936;50.820;4.336;2024-03-06T06:43:42;8.50;99.90
23520;DHT22;11936;50.820;4.336;2024-03-06T06:46:08;8.40;99.90
23520;DHT22;11936;50.820;4.336;2024-03-06T06:48:34;8.50;99.90
23520;DHT22;11936;50.820;4.336;2024-03-06T06:51:00;8.40;99.90
23520;DHT22;11936;50.820;4.336;2024-03-06T06:53:31;8.50;99.90
23520;DHT22;11936;50.820;4.336;2024-03-06T06:55:57;8.40;99.90
23520;DHT22;11936;50.820;4.336;2024-03-06T06:58:23;8.60;99.90
23520;DHT22;11936;50.820;4.336;2024-03-06T07:00:48;8.60;99.90
23520;DHT22;11936;50.820;4.336;2024-03-06T07:03:14;8.60;99.90
23520;DHT22;11936;50.820;4.336;2024-03-06T07:05:39;8.70;99.90
23520;DHT22;11936;50.820;4.336;2024-03-06T07:08:07;8.70;99.90
23520;DHT22;11936;50.820;4.336;2024-03-06T07:10:33;8.60;99.90
23520;DHT22;11936;50.820;4.336;2024-03-06T07:13:01;8.70;99.90
23520;DHT22;11936;50.820;4.336;2024-03-06T07:15:28;8.60;99.90
23520;DHT22;11936;50.820;4.336;2024-03-06T07:17:54;8.60;99.90
23520;DHT22;11936;50.820;4.336;2024-03-06T07:20:20;8.50;99.90
23520;DHT22;11936;50.820;4.336;2024-03-06T07:22:45;8.70;99.90
23520;DHT22;11936;50.820;4.336;2024-03-06T07:25:11;8.60;99.90
23520;DHT22;11936;50.820;4.336;2024-03-06T07:27:37;8.70;99.90
23520;DHT22;11936;50.820;4.336;2024-03-06T07:30:03;8.50;99.90
23520;DHT22;11936;50.820;4.336;2024-03-06T07:32:28;8.60;99.90
23520;DHT22;11936;50.820;4.336;2024-03-06T07:34:54;8.70;99.90
23520;DHT22;11936;50.820;4.336;2024-03-06T07:37:19;8.60;99.90
23520;DHT22;11936;50.820;4.336;2024-03-06T07:39:45;8.60;99.90
23520;DHT22;11936;50.820;4.336;2024-03-06T07:42:11;8.70;99.90
23520;DHT22;11936;50.820;4.336;2024-03-06T07:44:36;8.80;99.90
23520;DHT22;11936;50.820;4.336;2024-03-06T07:47:02;8.80;99.90
23520;DHT22;11936;50.820;4.336;2024-03-06T07:49:29;8.80;99.90
23520;DHT22;11936;50.820;4.336;2024-03-06T07:51:54;8.80;99.90
23520;DHT22;11936;50.820;4.336;2024-03-06T07:54:20;8.80;99.90
23520;DHT22;11936;50.820;4.336;2024-03-06T07:56:46;8.50;99.90
23520;DHT22;11936;50.820;4.336;2024-03-06T07:59:12;8.40;99.90
23520;DHT22;11936;50.820;4.336;2024-03-06T08:01:38;8.40;99.90
23520;DHT22;11936;50.820;4.336;2024-03-06T08:04:04;8.40;99.90
23520;DHT22;11936;50.820;4.336;2024-03-06T08:06:29;8.50;99.90
23520;DHT22;11936;50.820;4.336;2024-03-06T08:08:59;8.60;99.90
23520;DHT22;11936;50.820;4.336;2024-03-06T08:11:24;8.70;99.90
23520;DHT22;11936;50.820;4.336;2024-03-06T08:13:56;8.80;99.90
23520;DHT22;11936;50.820;4.336;2024-03-06T08:16:22;8.90;99.90
23520;DHT22;11936;50.820;4.336;2024-03-06T08:18:47;9.00;99.90
23520;DHT22;11936;50.820;4.336;2024-03-06T08:21:13;8.80;99.90
23520;DHT22;11936;50.820;4.336;2024-03-06T08:23:38;8.70;99.90
23520;DHT22;11936;50.820;4.336;2024-03-06T08:26:04;8.80;99.90
23520;DHT22;11936;50.820;4.336;2024-03-06T08:28:30;8.90;99.90
23520;DHT22;11936;50.820;4.336;2024-03-06T08:30:56;8.90;99.90
23520;DHT22;11936;50.820;4.336;2024-03-06T08:33:21;8.90;99.90
23520;DHT22;11936;50.820;4.336;2024-03-06T08:35:48;8.80;99.90
23520;DHT22;11936;50.820;4.336;2024-03-06T08:38:14;8.50;99.90
23520;DHT22;11936;50.820;4.336;2024-03-06T08:40:39;8.70;99.90
23520;DHT22;11936;50.820;4.336;2024-03-06T08:43:07;8.70;99.90
23520;DHT22;11936;50.820;4.336;2024-03-06T08:45:34;8.80;99.90
23520;DHT22;11936;50.820;4.336;2024-03-06T08:47:59;8.80;99.90
23520;DHT22;11936;50.820;4.336;2024-03-06T08:50:25;8.90;99.90
23520;DHT22;11936;50.820;4.336;2024-03-06T08:52:51;9.00;99.90
23520;DHT22;11936;50.820;4.336;2024-03-06T08:55:17;9.10;99.90
23520;DHT22;11936;50.820;4.336;2024-03-06T08:57:43;9.00;99.90
23520;DHT22;11936;50.820;4.336;2024-03-06T09:00:09;9.00;99.90
23520;DHT22;11936;50.820;4.336;2024-03-06T09:02:36;9.10;99.90
23520;DHT22;11936;50.820;4.336;2024-03-06T09:05:05;9.10;99.90
23520;DHT22;11936;50.820;4.336;2024-03-06T09:07:30;9.20;99.90
23520;DHT22;11936;50.820;4.336;2024-03-06T09:09:56;9.40;99.90
23520;DHT22;11936;50.820;4.336;2024-03-06T09:12:22;9.30;99.90
23520;DHT22;11936;50.820;4.336;2024-03-06T09:14:48;9.50;99.90
23520;DHT22;11936;50.820;4.336;2024-03-06T09:17:13;9.30;99.90
23520;DHT22;11936;50.820;4.336;2024-03-06T09:19:40;9.40;99.90
23520;DHT22;11936;50.820;4.336;2024-03-06T09:22:07;9.50;99.90
23520;DHT22;11936;50.820;4.336;2024-03-06T09:24:34;9.50;99.90
23520;DHT22;11936;50.820;4.336;2024-03-06T09:27:06;9.50;99.90
23520;DHT22;11936;50.820;4.336;2024-03-06T09:29:31;9.30;99.90
23520;DHT22;11936;50.820;4.336;2024-03-06T09:31:57;9.50;99.90
23520;DHT22;11936;50.820;4.336;2024-03-06T09:34:24;9.50;99.90
23520;DHT22;11936;50.820;4.336;2024-03-06T09:36:50;9.70;99.90
23520;DHT22;11936;50.820;4.336;2024-03-06T09:39:17;9.80;99.90
23520;DHT22;11936;50.820;4.336;2024-03-06T09:41:55;9.70;99.90
23520;DHT22;11936;50.820;4.336;2024-03-06T09:44:22;9.80;99.90
23520;DHT22;11936;50.820;4.336;2024-03-06T09:46:48;9.70;99.90
23520;DHT22;11936;50.820;4.336;2024-03-06T09:49:16;9.80;99.90
23520;DHT22;11936;50.820;4.336;2024-03-06T09:51:46;9.90;99.90
23520;DHT22;11936;50.820;4.336;2024-03-06T09:54:13;9.80;99.90
23520;DHT22;11936;50.820;4.336;2024-03-06T09:56:58;9.90;99.90
23520;DHT22;11936;50.820;4.336;2024-03-06T09:59:24;10.00;99.90
23520;DHT22;11936;50.820;4.336;2024-03-06T10:01:54;10.10;99.90
23520;DHT22;11936;50.820;4.336;2024-03-06T10:04:25;10.00;99.90
23520;DHT22;11936;50.820;4.336;2024-03-06T10:06:56;10.10;99.90
23520;DHT22;11936;50.820;4.336;2024-03-06T10:09:22;10.10;99.90
23520;DHT22;11936;50.820;4.336;2024-03-06T10:11:47;10.20;99.90
23520;DHT22;11936;50.820;4.336;2024-03-06T10:14:13;10.20;99.90
23520;DHT22;11936;50.820;4.336;2024-03-06T10:17:12;10.20;99.90
23520;DHT22;11936;50.820;4.336;2024-03-06T10:19:44;10.40;99.90
23520;DHT22;11936;50.820;4.336;2024-03-06T10:22:15;10.50;99.90
23520;DHT22;11936;50.820;4.336;2024-03-06T10:24:41;10.60;99.90
23520;DHT22;11936;50.820;4.336;2024-03-06T10:27:07;10.60;99.90
23520;DHT22;11936;50.820;4.336;2024-03-06T10:29:32;10.50;99.90
23520;DHT22;11936;50.820;4.336;2024-03-06T10:31:58;10.40;99.90
23520;DHT22;11936;50.820;4.336;2024-03-06T10:34:26;10.50;99.90
23520;DHT22;11936;50.820;4.336;2024-03-06T10:37:03;10.60;99.90
23520;DHT22;11936;50.820;4.336;2024-03-06T10:39:30;10.50;99.90
23520;DHT22;11936;50.820;4.336;2024-03-06T10:42:01;10.70;99.90
23520;DHT22;11936;50.820;4.336;2024-03-06T10:44:27;10.80;99.90
23520;DHT22;11936;50.820;4.336;2024-03-06T10:47:05;10.60;99.90
23520;DHT22;11936;50.820;4.336;2024-03-06T10:49:32;10.40;99.90
23520;DHT22;11936;50.820;4.336;2024-03-06T10:52:04;10.40;99.90
23520;DHT22;11936;50.820;4.336;2024-03-06T10:54:33;10.40;99.90
23520;DHT22;11936;50.820;4.336;2024-03-06T10:57:00;10.50;99.90
23520;DHT22;11936;50.820;4.336;2024-03-06T10:59:27;10.80;99.90
23520;DHT22;11936;50.820;4.336;2024-03-06T11:01:58;10.80;99.90
23520;DHT22;11936;50.820;4.336;2024-03-06T11:04:27;11.00;99.90
23520;DHT22;11936;50.820;4.336;2024-03-06T11:06:59;10.90;99.90
23520;DHT22;11936;50.820;4.336;2024-03-06T11:09:32;11.00;99.90
23520;DHT22;11936;50.820;4.336;2024-03-06T11:12:00;11.20;99.90
23520;DHT22;11936;50.820;4.336;2024-03-06T11:14:30;11.20;99.90
23520;DHT22;11936;50.820;4.336;2024-03-06T11:16:58;11.20;99.90
23520;DHT22;11936;50.820;4.336;2024-03-06T11:19:25;11.20;99.90
23520;DHT22;11936;50.820;4.336;2024-03-06T11:21:51;11.20;99.90
23520;DHT22;11936;50.820;4.336;2024-03-06T11:24:19;11.30;99.90
23520;DHT22;11936;50.820;4.336;2024-03-06T11:26:49;11.20;99.90
23520;DHT22;11936;50.820;4.336;2024-03-06T11:29:18;11.30;99.90
23520;DHT22;11936;50.820;4.336;2024-03-06T11:32:05;11.20;99.90
23520;DHT22;11936;50.820;4.336;2024-03-06T11:34:35;11.30;99.90
23520;DHT22;11936;50.820;4.336;2024-03-06T11:37:06;11.40;99.90
23520;DHT22;11936;50.820;4.336;2024-03-06T11:39:35;11.60;99.90
23520;DHT22;11936;50.820;4.336;2024-03-06T11:42:02;11.70;99.90
23520;DHT22;11936;50.820;4.336;2024-03-06T11:44:28;11.80;99.90
23520;DHT22;11936;50.820;4.336;2024-03-06T11:47:02;12.00;99.90
23520;DHT22;11936;50.820;4.336;2024-03-06T11:49:30;12.00;99.90
23520;DHT22;11936;50.820;4.336;2024-03-06T11:52:04;12.00;99.90
23520;DHT22;11936;50.820;4.336;2024-03-06T11:54:31;12.00;99.90
23520;DHT22;11936;50.820;4.336;2024-03-06T11:57:03;11.90;99.90
23520;DHT22;11936;50.820;4.336;2024-03-06T11:59:33;11.90;99.90
23520;DHT22;11936;50.820;4.336;2024-03-06T12:02:01;12.00;99.90
23520;DHT22;11936;50.820;4.336;2024-03-06T12:04:34;12.00;99.90
23520;DHT22;11936;50.820;4.336;2024-03-06T12:07:01;12.00;99.90
23520;DHT22;11936;50.820;4.336;2024-03-06T12:09:32;12.00;99.90
23520;DHT22;11936;50.820;4.336;2024-03-06T12:12:01;12.10;99.90
23520;DHT22;11936;50.820;4.336;2024-03-06T12:14:27;12.10;99.90
23520;DHT22;11936;50.820;4.336;2024-03-06T12:16:57;12.20;99.90
23520;DHT22;11936;50.820;4.336;2024-03-06T12:19:25;12.50;99.90
23520;DHT22;11936;50.820;4.336;2024-03-06T12:21:51;12.60;99.90
23520;DHT22;11936;50.820;4.336;2024-03-06T12:24:19;12.50;99.90
23520;DHT22;11936;50.820;4.336;2024-03-06T12:26:45;12.60;99.90
23520;DHT22;11936;50.820;4.336;2024-03-06T12:29:11;12.70;99.90
23520;DHT22;11936;50.820;4.336;2024-03-06T12:31:42;12.70;99.90
23520;DHT22;11936;50.820;4.336;2024-03-06T12:34:13;12.90;99.90
23520;DHT22;11936;50.820;4.336;2024-03-06T12:36:38;12.90;99.90
23520;DHT22;11936;50.820;4.336;2024-03-06T12:39:04;12.80;99.90
23520;DHT22;11936;50.820;4.336;2024-03-06T12:41:39;12.90;99.90
23520;DHT22;11936;50.820;4.336;2024-03-06T12:44:05;13.00;99.90
23520;DHT22;11936;50.820;4.336;2024-03-06T12:46:32;13.00;99.90
23520;DHT22;11936;50.820;4.336;2024-03-06T12:48:58;12.80;99.90
23520;DHT22;11936;50.820;4.336;2024-03-06T12:51:23;12.70;99.90
23520;DHT22;11936;50.820;4.336;2024-03-06T12:53:49;12.90;99.90
23520;DHT22;11936;50.820;4.336;2024-03-06T12:56:15;12.90;99.90
23520;DHT22;11936;50.820;4.336;2024-03-06T12:58:41;13.00;99.90
23520;DHT22;11936;50.820;4.336;2024-03-06T13:01:06;12.80;99.90
23520;DHT22;11936;50.820;4.336;2024-03-06T13:03:32;12.70;99.90
23520;DHT22;11936;50.820;4.336;2024-03-06T13:05:58;12.70;99.90
23520;DHT22;11936;50.820;4.336;2024-03-06T13:08:23;12.70;99.90
23520;DHT22;11936;50.820;4.336;2024-03-06T13:10:49;12.60;99.90
23520;DHT22;11936;50.820;4.336;2024-03-06T13:13:15;12.60;99.90
23520;DHT22;11936;50.820;4.336;2024-03-06T13:15:40;12.60;99.90
23520;DHT22;11936;50.820;4.336;2024-03-06T13:18:06;12.70;99.90
23520;DHT22;11936;50.820;4.336;2024-03-06T13:20:33;12.50;99.90
23520;DHT22;11936;50.820;4.336;2024-03-06T13:22:59;12.60;99.90
23520;DHT22;11936;50.820;4.336;2024-03-06T13:25:25;12.70;99.90
23520;DHT22;11936;50.820;4.336;2024-03-06T13:27:51;12.60;99.90
23520;DHT22;11936;50.820;4.336;2024-03-06T13:30:20;12.70;99.90
23520;DHT22;11936;50.820;4.336;2024-03-06T13:32:46;12.70;99.90
23520;DHT22;11936;50.820;4.336;2024-03-06T13:35:14;12.80;99.90
23520;DHT22;11936;50.820;4.336;2024-03-06T13:37:40;12.80;99.90
23520;DHT22;11936;50.820;4.336;2024-03-06T13:40:07;12.60;99.90
23520;DHT22;11936;50.820;4.336;2024-03-06T13:42:34;12.50;99.90
23520;DHT22;11936;50.820;4.336;2024-03-06T13:45:01;12.60;99.90
23520;DHT22;11936;50.820;4.336;2024-03-06T13:47:26;12.70;99.90
23520;DHT22;11936;50.820;4.336;2024-03-06T13:49:52;12.80;99.90
23520;DHT22;11936;50.820;4.336;2024-03-06T13:52:18;12.90;99.90
23520;DHT22;11936;50.820;4.336;2024-03-06T13:54:46;13.00;99.90
23520;DHT22;11936;50.820;4.336;2024-03-06T13:57:13;12.90;99.90
23520;DHT22;11936;50.820;4.336;2024-03-06T13:59:39;12.90;99.90
23520;DHT22;11936;50.820;4.336;2024-03-06T14:02:06;12.90;99.90
23520;DHT22;11936;50.820;4.336;2024-03-06T14:04:32;12.90;99.90
23520;DHT22;11936;50.820;4.336;2024-03-06T14:06:58;13.10;99.90
23520;DHT22;11936;50.820;4.336;2024-03-06T14:09:24;13.10;99.90
23520;DHT22;11936;50.820;4.336;2024-03-06T14:11:51;13.10;99.90
23520;DHT22;11936;50.820;4.336;2024-03-06T14:14:17;13.10;99.90
23520;DHT22;11936;50.820;4.336;2024-03-06T14:16:43;13.10;99.90
23520;DHT22;11936;50.820;4.336;2024-03-06T14:19:09;13.00;99.90
23520;DHT22;11936;50.820;4.336;2024-03-06T14:21:34;13.10;99.90
23520;DHT22;11936;50.820;4.336;2024-03-06T14:24:04;13.10;99.90
23520;DHT22;11936;50.820;4.336;2024-03-06T14:26:33;12.90;99.90
23520;DHT22;11936;50.820;4.336;2024-03-06T14:29:02;12.90;99.90
23520;DHT22;11936;50.820;4.336;2024-03-06T14:31:29;13.00;99.90
23520;DHT22;11936;50.820;4.336;2024-03-06T14:33:54;13.00;99.90
23520;DHT22;11936;50.820;4.336;2024-03-06T14:36:20;13.00;99.90
23520;DHT22;11936;50.820;4.336;2024-03-06T14:38:52;13.10;99.90
23520;DHT22;11936;50.820;4.336;2024-03-06T14:41:19;13.10;99.90
23520;DHT22;11936;50.820;4.336;2024-03-06T14:43:45;13.20;99.90
23520;DHT22;11936;50.820;4.336;2024-03-06T14:46:11;13.10;99.90
23520;DHT22;11936;50.820;4.336;2024-03-06T14:48:38;12.90;99.90
23520;DHT22;11936;50.820;4.336;2024-03-06T14:51:03;13.10;99.90
23520;DHT22;11936;50.820;4.336;2024-03-06T14:53:29;13.30;99.90
23520;DHT22;11936;50.820;4.336;2024-03-06T14:55:56;13.30;99.90
23520;DHT22;11936;50.820;4.336;2024-03-06T14:58:21;13.30;99.90
23520;DHT22;11936;50.820;4.336;2024-03-06T15:00:48;13.20;99.90
23520;DHT22;11936;50.820;4.336;2024-03-06T15:03:14;13.30;99.90
23520;DHT22;11936;50.820;4.336;2024-03-06T15:05:40;13.30;99.90
23520;DHT22;11936;50.820;4.336;2024-03-06T15:08:06;13.30;99.90
23520;DHT22;11936;50.820;4.336;2024-03-06T15:10:31;13.40;99.90
23520;DHT22;11936;50.820;4.336;2024-03-06T15:12:58;13.40;99.90
23520;DHT22;11936;50.820;4.336;2024-03-06T15:15:24;13.30;99.90
23520;DHT22;11936;50.820;4.336;2024-03-06T15:17:50;13.30;99.90
23520;DHT22;11936;50.820;4.336;2024-03-06T15:20:15;13.30;99.90
23520;DHT22;11936;50.820;4.336;2024-03-06T15:22:43;13.40;99.90
23520;DHT22;11936;50.820;4.336;2024-03-06T15:25:10;13.50;99.90
23520;DHT22;11936;50.820;4.336;2024-03-06T15:27:36;13.60;99.90
23520;DHT22;11936;50.820;4.336;2024-03-06T15:30:10;13.70;99.90
23520;DHT22;11936;50.820;4.336;2024-03-06T15:32:37;13.70;99.90
23520;DHT22;11936;50.820;4.336;2024-03-06T15:35:04;13.70;99.90
23520;DHT22;11936;50.820;4.336;2024-03-06T15:37:30;13.60;99.90